createdAt,value
2017-11-22T00:03:51.404Z,99777.95
2017-11-22T00:06:18.994Z,99767.38
2017-11-22T00:08:46.534Z,99775.95
2017-11-22T00:11:14.034Z,99773.48
2017-11-22T00:13:41.754Z,99778.27
2017-11-22T00:16:09.317Z,99774.58
2017-11-22T00:18:36.931Z,99774.18
2017-11-22T00:21:04.498Z,99775.36
2017-11-22T00:23:31.992Z,99773.74
2017-11-22T00:26:00.355Z,99773.63
2017-11-22T00:28:27.832Z,99768.98
2017-11-22T00:30:55.505Z,99768.03
2017-11-22T00:33:23.049Z,99771.64
2017-11-22T00:35:50.592Z,99765.67
2017-11-22T00:38:18.080Z,99768.58
2017-11-22T00:40:45.580Z,99784.53
2017-11-22T00:43:13.038Z,99778.56
2017-11-22T00:45:40.544Z,99778.42
2017-11-22T00:48:09.230Z,99784.76
2017-11-22T00:50:36.693Z,99778.20
2017-11-22T00:53:04.253Z,99776.36
2017-11-22T00:55:31.853Z,99779.71
2017-11-22T00:57:59.375Z,99779.27
2017-11-22T01:00:26.825Z,99775.66
2017-11-22T01:02:54.435Z,99777.77
2017-11-22T01:05:22.005Z,99779.67
2017-11-22T01:07:49.534Z,99773.70
2017-11-22T01:10:17.115Z,99768.55
2017-11-22T01:12:44.795Z,99772.16
2017-11-22T01:15:12.342Z,99772.85
2017-11-22T01:17:39.933Z,99763.16
2017-11-22T01:20:07.545Z,99773.26
2017-11-22T01:22:35.972Z,99770.49
2017-11-22T01:25:03.570Z,99764.23
2017-11-22T01:27:31.131Z,99776.03
2017-11-22T01:29:58.668Z,99776.75
2017-11-22T01:32:27.108Z,99786.41
2017-11-22T01:34:54.563Z,99786.64
2017-11-22T01:37:21.999Z,99780.89
2017-11-22T01:39:49.819Z,99791.68
2017-11-22T01:42:17.304Z,99798.98
2017-11-22T01:44:44.870Z,99794.89
2017-11-22T01:47:12.313Z,99795.32
2017-11-22T01:49:39.851Z,99793.93
2017-11-22T01:52:07.372Z,99797.54
2017-11-22T01:54:34.878Z,99801.38
2017-11-22T01:57:02.410Z,99796.24
2017-11-22T01:59:29.907Z,99782.58
2017-11-22T02:02:16.708Z,99774.62
2017-11-22T02:04:44.158Z,99771.59
2017-11-22T02:07:11.667Z,99774.57
2017-11-22T02:09:39.524Z,99770.90
2017-11-22T02:12:07.225Z,99773.77
2017-11-22T02:14:34.721Z,99768.08
2017-11-22T02:17:02.217Z,99767.16
2017-11-22T02:19:29.737Z,99779.53
2017-11-22T02:21:57.236Z,99776.62
2017-11-22T02:24:24.753Z,99783.92
2017-11-22T02:26:52.246Z,99782.08
2017-11-22T02:29:19.696Z,99788.70
2017-11-22T02:31:47.315Z,99787.37
2017-11-22T02:34:14.800Z,99788.13
2017-11-22T02:36:42.268Z,99778.66
2017-11-22T02:39:09.882Z,99766.14
2017-11-22T02:41:37.365Z,99780.36
2017-11-22T02:44:04.851Z,99778.55
2017-11-22T02:46:32.298Z,99775.49
2017-11-22T02:48:59.766Z,99775.13
2017-11-22T02:51:27.251Z,99770.85
2017-11-22T02:53:54.749Z,99770.22
2017-11-22T02:56:22.229Z,99768.75
2017-11-22T02:58:49.714Z,99762.16
2017-11-22T03:01:17.228Z,99760.86
2017-11-22T03:03:44.700Z,99766.02
2017-11-22T03:06:12.202Z,99762.45
2017-11-22T03:08:39.722Z,99758.38
2017-11-22T03:11:07.202Z,99758.59
2017-11-22T03:13:34.715Z,99757.81
2017-11-22T03:16:02.233Z,99754.80
2017-11-22T03:18:29.709Z,99749.09
2017-11-22T03:20:57.173Z,99750.16
2017-11-22T03:23:24.641Z,99756.38
2017-11-22T03:25:52.211Z,99758.77
2017-11-22T03:28:19.755Z,99751.91
2017-11-22T03:30:47.214Z,99756.67
2017-11-22T03:33:14.713Z,99745.98
2017-11-22T03:35:42.164Z,99747.97
2017-11-22T03:38:09.899Z,99747.34
2017-11-22T03:41:01.003Z,99742.81
2017-11-22T03:43:28.470Z,99744.83
2017-11-22T03:45:56.059Z,99751.72
2017-11-22T03:48:23.543Z,99755.52
2017-11-22T03:50:56.823Z,99758.72
2017-11-22T03:53:30.008Z,99744.14
2017-11-22T03:55:57.520Z,99747.05
2017-11-22T03:58:25.928Z,99744.39
2017-11-22T04:00:53.371Z,99736.88
2017-11-22T04:03:20.916Z,99732.84
2017-11-22T04:05:53.895Z,99727.48
2017-11-22T04:08:27.207Z,99727.86
2017-11-22T04:10:54.668Z,99731.38
2017-11-22T04:13:22.288Z,99726.59
2017-11-22T04:15:49.718Z,99720.14
2017-11-22T04:18:19.989Z,99714.70
2017-11-22T04:20:53.179Z,99716.72
2017-11-22T04:23:20.700Z,99711.97
2017-11-22T04:25:48.126Z,99698.48
2017-11-22T04:28:15.582Z,99705.11
2017-11-22T04:30:43.087Z,99710.01
2017-11-22T04:33:10.562Z,99710.13
2017-11-22T04:35:38.022Z,99684.98
2017-11-22T04:38:05.536Z,99685.01
2017-11-22T04:43:26.000Z,99678.38
2017-11-22T04:45:53.442Z,99678.94
2017-11-22T04:48:21.066Z,99676.69
2017-11-22T04:50:48.577Z,99689.97
2017-11-22T04:53:16.127Z,99687.17
2017-11-22T04:55:45.577Z,99686.25
2017-11-22T04:58:13.040Z,99689.19
2017-11-22T05:00:40.543Z,99690.66
2017-11-22T05:03:08.010Z,99683.23
2017-11-22T05:05:35.486Z,99682.30
2017-11-22T05:08:02.945Z,99678.88
2017-11-22T05:10:30.517Z,99681.79
2017-11-22T05:12:58.053Z,99668.02
2017-11-22T05:15:25.534Z,99676.81
2017-11-22T05:17:53.114Z,99684.50
2017-11-22T05:20:20.698Z,99671.22
2017-11-22T05:22:48.289Z,99675.92
2017-11-22T05:25:15.773Z,99675.14
2017-11-22T05:27:43.216Z,99683.09
2017-11-22T05:30:10.666Z,99675.52
2017-11-22T05:32:38.125Z,99676.55
2017-11-22T05:35:05.628Z,99677.36
2017-11-22T05:37:33.105Z,99682.86
2017-11-22T05:40:00.631Z,99678.63
2017-11-22T05:42:28.088Z,99674.66
2017-11-22T05:44:55.625Z,99675.95
2017-11-22T05:47:23.102Z,99675.84
2017-11-22T05:49:50.514Z,99677.94
2017-11-22T05:52:17.976Z,99671.08
2017-11-22T05:54:47.287Z,99668.92
2017-11-22T05:57:14.737Z,99680.33
2017-11-22T05:59:42.197Z,99684.56
2017-11-22T06:02:09.664Z,99688.02
2017-11-22T06:04:37.186Z,99688.28
2017-11-22T06:07:04.671Z,99685.22
2017-11-22T06:09:32.137Z,99695.09
2017-11-22T06:11:59.670Z,99694.70
2017-11-22T06:14:27.221Z,99685.05
2017-11-22T06:16:54.674Z,99680.16
2017-11-22T06:19:22.272Z,99671.02
2017-11-22T06:21:50.340Z,99681.51
2017-11-22T06:24:18.790Z,99679.46
2017-11-22T06:26:46.276Z,99682.52
2017-11-22T06:29:13.776Z,99696.86
2017-11-22T06:31:41.468Z,99699.59
2017-11-22T06:34:09.130Z,99685.48
2017-11-22T06:36:36.897Z,99698.33
2017-11-22T06:39:06.149Z,99708.66
2017-11-22T06:41:33.703Z,99701.78
2017-11-22T06:44:01.161Z,99714.11
2017-11-22T06:46:29.177Z,99711.83
2017-11-22T06:48:57.169Z,99716.47
2017-11-22T06:51:24.668Z,99720.56
2017-11-22T06:53:52.218Z,99722.14
2017-11-22T06:56:19.902Z,99711.69
2017-11-22T06:58:53.875Z,99715.80
2017-11-22T07:01:21.841Z,99707.89
2017-11-22T07:03:55.266Z,99697.89
2017-11-22T07:06:22.977Z,99702.97
2017-11-22T07:08:50.729Z,99716.44
2017-11-22T07:11:19.156Z,99717.77
2017-11-22T07:13:46.908Z,99732.11
2017-11-22T07:16:19.961Z,99744.92
2017-11-22T07:18:47.419Z,99751.72
2017-11-22T07:21:14.892Z,99751.28
2017-11-22T07:23:42.435Z,99757.13
2017-11-22T07:26:09.954Z,99754.08
2017-11-22T07:28:37.657Z,99760.02
2017-11-22T07:31:05.157Z,99759.23
2017-11-22T07:33:32.986Z,99759.20
2017-11-22T07:36:06.077Z,99757.25
2017-11-22T07:38:33.556Z,99749.50
2017-11-22T07:41:01.036Z,99755.75
2017-11-22T07:43:28.503Z,99755.81
2017-11-22T07:45:56.029Z,99740.89
2017-11-22T07:48:23.566Z,99747.75
2017-11-22T07:50:51.201Z,99743.25
2017-11-22T07:53:18.721Z,99756.07
2017-11-22T07:55:49.125Z,99748.09
2017-11-22T07:58:16.652Z,99760.25
2017-11-22T08:00:44.272Z,99759.96
2017-11-22T08:03:11.821Z,99765.81
2017-11-22T08:05:39.465Z,99784.34
2017-11-22T08:08:15.808Z,99771.48
2017-11-22T08:10:43.476Z,99781.08
2017-11-22T08:13:10.988Z,99781.31
2017-11-22T08:15:39.838Z,99776.12
2017-11-22T08:18:07.320Z,99782.63
2017-11-22T08:20:34.898Z,99786.95
2017-11-22T08:23:02.505Z,99794.80
2017-11-22T08:25:30.062Z,99789.35
2017-11-22T08:27:57.804Z,99795.25
2017-11-22T08:30:25.531Z,99792.38
2017-11-22T08:32:53.201Z,99792.45
2017-11-22T08:35:20.758Z,99798.97
2017-11-22T08:37:49.227Z,99803.06
2017-11-22T08:40:21.741Z,99810.13
2017-11-22T08:42:54.815Z,99808.97
2017-11-22T08:45:23.941Z,99806.47
2017-11-22T08:47:51.503Z,99808.34
2017-11-22T08:50:20.061Z,99807.16
2017-11-22T08:52:47.833Z,99816.69
2017-11-22T08:55:20.873Z,99826.37
2017-11-22T08:57:53.903Z,99826.49
2017-11-22T09:00:21.672Z,99834.44
2017-11-22T09:02:50.199Z,99820.64
2017-11-22T09:05:17.694Z,99815.42
2017-11-22T09:07:45.356Z,99805.98
2017-11-22T09:10:13.396Z,99804.10
2017-11-22T09:15:34.913Z,99808.31
2017-11-22T09:18:07.542Z,99803.81
2017-11-22T09:20:35.855Z,99814.45
2017-11-22T09:23:05.497Z,99815.22
2017-11-22T09:25:40.346Z,99819.55
2017-11-22T09:28:08.165Z,99818.63
2017-11-22T09:30:54.129Z,99819.09
2017-11-22T09:33:28.388Z,99820.63
2017-11-22T09:35:57.422Z,99829.72
2017-11-22T09:38:26.719Z,99831.69
2017-11-22T09:40:54.351Z,99834.19
2017-11-22T09:43:22.844Z,99840.59
2017-11-22T09:45:51.728Z,99833.44
2017-11-22T09:48:19.477Z,99832.69
2017-11-22T09:51:18.765Z,99824.83
2017-11-22T09:54:01.144Z,99817.36
2017-11-22T09:56:33.182Z,99813.50
2017-11-22T09:59:01.913Z,99815.80
2017-11-22T10:01:31.003Z,99813.27
2017-11-22T10:03:58.908Z,99817.09
2017-11-22T10:06:26.491Z,99811.25
2017-11-22T10:08:54.748Z,99808.45
2017-11-22T10:11:22.573Z,99810.47
2017-11-22T10:13:50.784Z,99808.09
2017-11-22T10:16:18.866Z,99806.22
2017-11-22T10:18:46.573Z,99805.01
2017-11-22T10:21:27.637Z,99805.14
2017-11-22T10:23:55.557Z,99805.77
2017-11-22T10:26:29.233Z,99804.89
2017-11-22T10:29:12.720Z,99790.52
2017-11-22T10:31:46.509Z,99804.05
2017-11-22T10:34:14.959Z,99801.95
2017-11-22T10:37:04.030Z,99799.26
2017-11-22T10:39:34.530Z,99800.63
2017-11-22T10:42:02.290Z,99796.09
2017-11-22T10:44:30.154Z,99794.36
2017-11-22T10:46:58.199Z,99805.02
2017-11-22T10:49:27.244Z,99806.94
2017-11-22T10:51:54.958Z,99805.69
2017-11-22T10:54:22.577Z,99804.59
2017-11-22T10:56:50.711Z,99803.44
2017-11-22T10:59:19.178Z,99798.56
2017-11-22T11:01:52.361Z,99792.08
2017-11-22T11:04:21.233Z,99785.61
2017-11-22T11:06:50.516Z,99785.94
2017-11-22T11:09:20.087Z,99783.58
2017-11-22T11:11:52.827Z,99788.61
2017-11-22T11:14:21.210Z,99786.44
2017-11-22T11:16:48.901Z,99783.77
2017-11-22T11:19:16.802Z,99777.77
2017-11-22T11:21:50.201Z,99786.79
2017-11-22T11:24:18.586Z,99790.97
2017-11-22T11:26:49.546Z,99794.57
2017-11-22T11:29:19.002Z,99788.33
2017-11-22T11:34:39.561Z,99777.80
2017-11-22T11:37:13.497Z,99775.17
2017-11-22T11:39:41.634Z,99780.66
2017-11-22T11:42:09.135Z,99782.05
2017-11-22T11:44:36.653Z,99783.00
2017-11-22T11:47:06.025Z,99777.79
2017-11-22T11:49:33.728Z,99770.99
2017-11-22T11:52:01.327Z,99768.66
2017-11-22T11:54:28.919Z,99766.14
2017-11-22T11:56:57.578Z,99769.31
2017-11-22T11:59:25.244Z,99767.93
2017-11-22T12:01:52.807Z,99771.37
2017-11-22T12:04:21.911Z,99766.45
2017-11-22T12:06:49.627Z,99769.66
2017-11-22T12:09:17.263Z,99771.14
2017-11-22T12:20:33.222Z,99784.02
2017-11-22T12:23:06.451Z,99778.25
2017-11-22T12:25:35.609Z,99771.81
2017-11-22T12:28:03.541Z,99770.08
2017-11-22T12:30:31.448Z,99766.60
2017-11-22T12:33:00.707Z,99767.88
2017-11-22T12:35:31.239Z,99774.88
2017-11-22T12:37:59.507Z,99777.23
2017-11-22T12:40:27.331Z,99780.34
2017-11-22T12:42:55.981Z,99787.52
2017-11-22T12:45:24.075Z,99783.94
2017-11-22T12:47:52.037Z,99778.92
2017-11-22T12:50:19.870Z,99781.75
2017-11-22T12:52:52.581Z,99780.67
2017-11-22T12:55:21.436Z,99787.56
2017-11-22T12:57:54.961Z,99776.68
2017-11-22T13:00:22.785Z,99774.58
2017-11-22T13:02:54.517Z,99768.86
2017-11-22T13:05:22.361Z,99773.20
2017-11-22T13:07:50.484Z,99782.70
2017-11-22T13:10:19.970Z,99783.16
2017-11-22T13:12:47.585Z,99786.54
2017-11-22T13:17:59.718Z,99773.84
2017-11-22T13:20:27.723Z,99770.28
2017-11-22T13:22:55.234Z,99769.50
2017-11-22T13:25:23.220Z,99759.95
2017-11-22T13:27:51.099Z,99758.98
2017-11-22T13:30:18.775Z,99763.02
2017-11-22T13:32:46.494Z,99773.59
2017-11-22T13:35:14.980Z,99776.64
2017-11-22T13:37:42.588Z,99772.84
2017-11-22T13:40:10.321Z,99782.05
2017-11-22T13:42:40.548Z,99771.92
2017-11-22T13:45:09.182Z,99773.56
2017-11-22T13:47:36.930Z,99759.61
2017-11-22T13:50:04.536Z,99759.39
2017-11-22T13:52:32.269Z,99767.16
2017-11-22T13:55:00.735Z,99775.39
2017-11-22T13:57:28.862Z,99771.55
2017-11-22T13:59:57.595Z,99768.23
2017-11-22T14:02:25.347Z,99764.55
2017-11-22T14:04:54.030Z,99760.19
2017-11-22T14:07:21.508Z,99766.83
2017-11-22T14:09:49.012Z,99764.17
2017-11-22T14:12:17.039Z,99764.13
2017-11-22T14:14:47.581Z,99762.70
2017-11-22T14:17:19.613Z,99761.64
2017-11-22T14:19:48.032Z,99758.81
2017-11-22T14:22:16.902Z,99765.50
2017-11-22T14:24:45.392Z,99763.52
2017-11-22T14:27:13.147Z,99765.63
2017-11-22T14:29:40.674Z,99764.44
2017-11-22T14:32:10.027Z,99756.67
2017-11-22T14:34:38.215Z,99765.55
2017-11-22T14:37:07.089Z,99764.11
2017-11-22T14:39:34.831Z,99759.37
2017-11-22T14:42:02.431Z,99762.22
2017-11-22T14:44:30.158Z,99761.73
2017-11-22T14:46:57.804Z,99754.95
2017-11-22T14:49:26.117Z,99756.69
2017-11-22T14:51:55.752Z,99757.69
2017-11-22T14:54:23.650Z,99764.41
2017-11-22T14:56:51.411Z,99770.59
2017-11-22T14:59:21.231Z,99760.56
2017-11-22T15:01:49.246Z,99754.32
2017-11-22T15:04:18.386Z,99757.24
2017-11-22T15:06:48.007Z,99745.95
2017-11-22T15:09:15.659Z,99754.32
2017-11-22T15:11:43.396Z,99746.92
2017-11-22T15:14:11.094Z,99743.45
2017-11-22T15:16:38.715Z,99741.17
2017-11-22T15:19:06.484Z,99743.46
2017-11-22T15:21:34.062Z,99748.66
2017-11-22T15:24:01.743Z,99747.02
2017-11-22T15:26:29.394Z,99749.19
2017-11-22T15:28:56.977Z,99747.35
2017-11-22T15:31:24.619Z,99737.58
2017-11-22T15:33:52.215Z,99732.20
2017-11-22T15:36:19.839Z,99725.98
2017-11-22T15:38:47.400Z,99726.02
2017-11-22T15:41:15.021Z,99723.14
2017-11-22T15:43:42.825Z,99723.14
2017-11-22T15:46:10.410Z,99714.92
2017-11-22T15:48:38.055Z,99721.16
2017-11-22T15:51:05.642Z,99727.39
2017-11-22T15:53:33.109Z,99723.70
2017-11-22T15:56:00.687Z,99717.25
2017-11-22T15:58:28.506Z,99724.77
2017-11-22T16:00:56.072Z,99725.91
2017-11-22T16:03:23.599Z,99716.00
2017-11-22T16:05:51.166Z,99720.58
2017-11-22T16:08:18.696Z,99724.66
2017-11-22T16:10:46.226Z,99726.17
2017-11-22T16:13:13.783Z,99726.03
2017-11-22T16:15:41.472Z,99726.44
2017-11-22T16:18:08.977Z,99724.19
2017-11-22T16:20:36.593Z,99727.47
2017-11-22T16:23:04.121Z,99726.25
2017-11-22T16:25:31.620Z,99712.06
2017-11-22T16:27:59.231Z,99718.33
2017-11-22T16:30:26.802Z,99713.58
2017-11-22T16:32:59.781Z,99722.75
2017-11-22T16:35:27.322Z,99722.38
2017-11-22T16:37:54.910Z,99715.89
2017-11-22T16:40:22.507Z,99725.22
2017-11-22T16:45:43.324Z,99720.73
2017-11-22T16:48:10.790Z,99720.33
2017-11-22T16:50:38.468Z,99718.73
2017-11-22T16:53:05.930Z,99711.48
2017-11-22T16:55:33.437Z,99720.10
2017-11-22T16:58:01.016Z,99720.10
2017-11-22T17:00:28.581Z,99722.27
2017-11-22T17:03:13.898Z,99724.92
2017-11-22T17:05:41.452Z,99723.12
2017-11-22T17:08:11.446Z,99726.51
2017-11-22T17:11:04.076Z,99731.59
2017-11-22T17:13:46.119Z,99731.59
2017-11-22T17:18:52.705Z,99742.50
2017-11-22T17:21:25.451Z,99741.09
2017-11-22T17:23:54.958Z,99746.39
2017-11-22T17:26:22.503Z,99736.48
2017-11-22T17:28:51.614Z,99737.95
2017-11-22T17:31:24.235Z,99739.17
2017-11-22T17:33:51.866Z,99734.97
2017-11-22T17:36:21.055Z,99735.66
2017-11-22T17:38:48.578Z,99729.41
2017-11-22T17:41:17.024Z,99727.20
2017-11-22T17:43:46.498Z,99735.42
2017-11-22T17:46:14.156Z,99733.98
2017-11-22T17:48:42.039Z,99736.75
2017-11-22T17:51:09.570Z,99744.70
2017-11-22T17:53:43.729Z,99746.53
2017-11-22T17:56:11.898Z,99750.03
2017-11-22T17:58:39.443Z,99743.87
2017-11-22T18:01:07.218Z,99743.23
2017-11-22T18:03:34.754Z,99745.77
2017-11-22T18:06:02.409Z,99740.84
2017-11-22T18:08:29.898Z,99742.75
2017-11-22T18:10:58.150Z,99748.60
2017-11-22T18:13:26.319Z,99738.84
2017-11-22T18:15:56.957Z,99731.58
2017-11-22T18:18:27.914Z,99735.33
2017-11-22T18:20:55.563Z,99724.87
2017-11-22T18:23:23.221Z,99729.22
2017-11-22T18:25:50.728Z,99730.42
2017-11-22T18:28:18.252Z,99730.45
2017-11-22T18:30:45.888Z,99730.78
2017-11-22T18:33:13.482Z,99732.10
2017-11-22T18:35:41.162Z,99731.33
2017-11-22T18:38:08.766Z,99728.94
2017-11-22T18:40:36.288Z,99727.35
2017-11-22T18:43:03.787Z,99725.22
2017-11-22T18:45:31.283Z,99725.77
2017-11-22T18:47:58.852Z,99725.39
2017-11-22T18:50:26.390Z,99724.91
2017-11-22T18:52:53.975Z,99730.20
2017-11-22T18:55:21.492Z,99727.95
2017-11-22T18:57:49.222Z,99726.52
2017-11-22T19:00:17.518Z,99728.65
2017-11-22T19:02:45.271Z,99725.08
2017-11-22T19:05:14.374Z,99732.02
2017-11-22T19:07:42.603Z,99732.19
2017-11-22T19:10:10.890Z,99732.80
2017-11-22T19:12:38.557Z,99728.05
2017-11-22T19:15:06.203Z,99720.67
2017-11-22T19:17:33.663Z,99728.03
2017-11-22T19:20:01.317Z,99722.25
2017-11-22T19:25:11.583Z,99712.37
2017-11-22T19:27:39.241Z,99712.11
2017-11-22T19:30:07.720Z,99705.09
2017-11-22T19:32:35.889Z,99698.11
2017-11-22T19:35:03.651Z,99697.83
2017-11-22T19:37:31.257Z,99705.63
2017-11-22T19:39:59.085Z,99703.36
2017-11-22T19:42:26.662Z,99698.30
2017-11-22T19:44:54.424Z,99703.84
2017-11-22T19:47:22.055Z,99704.11
2017-11-22T19:49:49.931Z,99698.98
2017-11-22T19:52:18.498Z,99693.40
2017-11-22T19:54:46.269Z,99698.70
2017-11-22T19:57:13.995Z,99703.59
2017-11-22T19:59:41.828Z,99705.94
2017-11-22T20:02:09.750Z,99696.50
2017-11-22T20:04:37.414Z,99699.03
2017-11-22T20:07:17.014Z,99695.49
2017-11-22T20:09:45.674Z,99702.38
2017-11-22T20:12:14.148Z,99695.20
2017-11-22T20:14:41.924Z,99694.31
2017-11-22T20:17:10.532Z,99707.30
2017-11-22T20:19:39.097Z,99693.22
2017-11-22T20:22:06.723Z,99695.38
2017-11-22T20:24:34.214Z,99701.91
2017-11-22T20:27:01.814Z,99701.13
2017-11-22T20:29:29.315Z,99705.91
2017-11-22T20:31:56.865Z,99708.27
2017-11-22T20:34:24.648Z,99707.61
2017-11-22T20:36:52.267Z,99696.61
2017-11-22T20:39:19.770Z,99698.08
2017-11-22T20:41:47.478Z,99704.15
2017-11-22T20:44:15.308Z,99702.14
2017-11-22T20:46:42.805Z,99702.52
2017-11-22T20:49:10.351Z,99702.26
2017-11-22T20:51:37.970Z,99700.79
2017-11-22T20:54:05.525Z,99697.05
2017-11-22T20:56:33.102Z,99695.84
2017-11-22T20:59:00.630Z,99697.05
2017-11-22T21:01:28.251Z,99701.73
2017-11-22T21:03:55.761Z,99700.03
2017-11-22T21:06:23.341Z,99698.36
2017-11-22T21:08:50.870Z,99699.91
2017-11-22T21:11:18.409Z,99701.95
2017-11-22T21:13:46.868Z,99700.92
2017-11-22T21:16:14.628Z,99691.39
2017-11-22T21:18:42.363Z,99690.50
2017-11-22T21:21:09.911Z,99684.11
2017-11-22T21:23:37.521Z,99682.24
2017-11-22T21:26:05.044Z,99691.13
2017-11-22T21:28:32.661Z,99679.27
2017-11-22T21:31:05.303Z,99680.73
2017-11-22T21:33:33.008Z,99690.83
2017-11-22T21:36:00.525Z,99685.42
2017-11-22T21:38:28.112Z,99679.31
2017-11-22T21:41:10.111Z,99674.73
2017-11-22T21:43:38.056Z,99680.64
2017-11-22T21:46:05.659Z,99683.55
2017-11-22T21:48:33.288Z,99681.19
2017-11-22T21:51:00.941Z,99670.97
2017-11-22T21:53:28.620Z,99667.95
2017-11-22T21:55:56.795Z,99660.78
2017-11-22T21:58:24.390Z,99666.75
2017-11-22T22:00:57.011Z,99670.58
2017-11-22T22:03:24.967Z,99667.78
2017-11-22T22:05:52.717Z,99675.18
2017-11-22T22:08:21.202Z,99666.95
2017-11-22T22:10:48.769Z,99673.73
2017-11-22T22:13:16.309Z,99671.88
2017-11-22T22:15:43.964Z,99663.64
2017-11-22T22:18:12.456Z,99663.22
2017-11-22T22:20:40.167Z,99659.81
2017-11-22T22:23:07.809Z,99658.47
2017-11-22T22:25:35.480Z,99665.89
2017-11-22T22:28:03.078Z,99674.80
2017-11-22T22:30:30.602Z,99677.19
2017-11-22T22:32:58.283Z,99679.34
2017-11-22T22:35:25.772Z,99683.08
2017-11-22T22:37:53.403Z,99688.52
2017-11-22T22:40:21.244Z,99685.38
2017-11-22T22:42:48.726Z,99683.67
2017-11-22T22:45:16.226Z,99678.90
2017-11-22T22:47:43.733Z,99680.73
2017-11-22T22:50:11.233Z,99675.33
2017-11-22T22:52:44.014Z,99674.13
2017-11-22T22:55:11.680Z,99667.50
2017-11-22T22:57:39.190Z,99667.88
2017-11-22T23:00:07.006Z,99671.95
2017-11-22T23:02:35.463Z,99666.27
2017-11-22T23:05:03.010Z,99672.09
2017-11-22T23:07:30.533Z,99671.92
2017-11-22T23:09:58.046Z,99662.28
2017-11-22T23:12:25.523Z,99661.36
2017-11-22T23:14:53.009Z,99661.09
2017-11-22T23:17:20.539Z,99658.97
2017-11-22T23:19:48.015Z,99656.35
2017-11-22T23:22:15.542Z,99661.90
2017-11-22T23:24:43.025Z,99650.28
2017-11-22T23:27:10.489Z,99639.72
2017-11-22T23:29:37.960Z,99646.19
2017-11-22T23:32:05.478Z,99641.84
2017-11-22T23:34:33.672Z,99650.84
2017-11-22T23:37:01.131Z,99648.98
2017-11-22T23:39:28.611Z,99646.66
2017-11-22T23:41:56.802Z,99645.94
2017-11-22T23:44:24.342Z,99651.25
2017-11-22T23:46:51.866Z,99650.99
2017-11-22T23:49:19.549Z,99648.61
2017-11-22T23:51:47.181Z,99651.23
2017-11-22T23:54:14.954Z,99644.30
2017-11-22T23:56:42.384Z,99642.39
2017-11-22T23:59:09.928Z,99637.85
